Date,TemperatureHighF,TemperatureAvgF,TemperatureLowF,DewpointHighF,DewpointAvgF,DewpointLowF,HumidityHigh,HumidityAvg,HumidityLow,PressureMaxIn,PressureMinIn,WindSpeedMaxMPH,WindSpeedAvgMPH,GustSpeedMaxMPH,PrecipitationSumIn
2013-6-1,91,84,80,82,78,75,87,81,69,29.92,29.85,9,4,17,0.01
2013-6-2,86,78,72,78,72,67,88,84,74,30.00,29.87,6,1,14,0.62
2013-6-3,94,80,70,79,72,65,88,77,57,29.93,29.83,4,0,8,0.01
2013-6-4,94,82,71,82,74,66,88,76,51,29.93,29.81,2,0,10,0.00
2013-6-5,95,84,74,82,77,69,87,78,60,29.89,29.75,5,1,9,0.00
2013-6-6,90,78,71,81,73,66,88,84,73,29.87,29.72,10,0,24,1.07
2013-6-7,90,76,68,76,70,63,88,82,61,29.91,29.83,2,0,8,0.40
2013-6-8,89,75,67,78,69,62,87,83,65,29.93,29.85,9,0,22,0.64
2013-6-9,90,77,69,81,72,64,88,84,71,29.95,29.86,5,0,13,0.01
2013-6-10,92,81,69,82,74,64,88,80,68,29.99,29.93,5,1,12,0.01
2013-6-11,94,83,72,83,76,67,88,79,64,30.06,29.97,5,1,12,0.00
2013-6-12,94,84,72,81,76,67,88,78,55,30.07,29.97,5,1,12,0.00
2013-6-13,97,84,73,84,76,68,87,79,56,30.06,29.90,5,0,9,0.00
2013-6-14,99,86,75,85,78,70,87,78,60,29.96,29.83,7,0,15,0.87
2013-6-15,96,83,75,84,76,70,88,81,64,29.98,29.88,5,0,11,0.89
2013-6-16,96,84,74,82,76,69,87,79,55,30.03,29.94,7,0,12,0.01
2013-6-17,93,84,73,82,76,68,87,78,63,30.00,29.89,7,2,13,0.00
2013-6-18,92,83,75,81,76,70,87,80,63,29.98,29.88,6,1,15,0.21
2013-6-19,84,78,75,80,73,70,87,85,81,30.02,29.93,7,0,16,1.00
2013-6-20,93,81,73,83,74,68,88,80,62,30.09,29.98,7,0,10,0.11
2013-6-22,93,88,79,81,79,74,86,75,60,30.07,29.96,5,1,9,0.00
2013-6-23,91,82,73,82,75,68,88,81,65,30.03,29.96,6,1,13,0.00
2013-6-24,92,83,74,81,76,69,87,80,65,30.08,30.00,7,1,13,0.00
2013-6-25,94,83,73,82,76,68,87,79,58,30.06,29.96,7,1,12,0.00
2013-6-26,95,85,77,81,77,72,87,78,61,30.02,29.93,7,1,15,0.00
2013-6-27,99,84,72,82,75,67,87,77,53,30.02,29.91,4,0,10,0.00
2013-6-28,97,87,77,82,78,72,87,76,55,29.96,29.78,6,1,11,0.00
2013-6-29,101,86,78,82,78,73,88,78,48,29.81,29.67,5,1,13,0.00
2013-6-30,94,75,69,74,69,64,88,83,41,29.82,29.75,4,0,11,0.00